KCFD/CFD METAR and TAF weather

Enter ICAO airport designator
Station Type Date Time Source
KCFD METAR 2018/09/21 23:35 UTC NOAA

KCFD 212335Z AUTO 14005KT 10SM -VCTSRA SCT085 BKN110 25/25 A2994 RMK AO2 LTG DSNT SW THRU N P0008 T02480248


Station Type Date Time Source
KCFD Decoded METAR 2018/09/21 23:35 UTC NOAA

Station name not available
Sep 21, 2018 - 07:35 PM EDT / 2018.09.21 2335 UTC
Wind: from the SE (140 degrees) at 6 MPH (5 KT):0
Visibility: 10 mile(s):0
Sky conditions: mostly cloudy
Weather: light rain with thunder in the vicinity; Lightning observed
Precipitation last hour: 0.08 inches
Temperature: 76.6 F (24.8 C)
Dew Point: 76.6 F (24.8 C)
Relative Humidity: 100%
Pressure (altimeter): 29.94 in. Hg (1013 hPa)
ob: KCFD 212335Z AUTO 14005KT 10SM -VCTSRA SCT085 BKN110 25/25 A2994 RMK AO2 LTG DSNT SW THRU N P0008 T02480248
cycle: 23

Station Type Date Time Source
KCFD TAF UTC NOAA

Error!


Example: see airport list